Time,TemperatureF,DewpointF,PressureIn,WindDirection,WindDirectionDegrees,WindSpeedMPH,WindSpeedGustMPH,Humidity,HourlyPrecipIn,Conditions,Clouds,dailyrainin,SoftwareType,DateUTC
2013-06-09 00:02:00,71.1,67.4,30.05,NNE,12,13.0,13.0,88,0.00,,,0.00,VWS V14.01,2013-06-09 10:02:00,
2013-06-09 00:07:00,71.2,67.5,30.05,NNE,20,8.0,10.0,88,0.00,,,0.00,VWS V14.01,2013-06-09 10:07:00,
2013-06-09 00:13:00,71.3,67.6,30.05,NW,323,12.0,12.0,88,0.00,,,0.00,VWS V14.01,2013-06-09 10:13:00,
2013-06-09 00:18:00,71.3,67.6,30.05,NE,50,6.0,8.0,88,0.00,,,0.00,VWS V14.01,2013-06-09 10:18:00,
2013-06-09 00:23:00,71.3,67.6,30.05,NE,47,7.0,7.0,88,0.00,,,0.00,VWS V14.01,2013-06-09 10:23:00,
2013-06-09 00:28:00,71.3,67.6,30.05,NNE,14,8.0,10.0,88,0.00,,,0.00,VWS V14.01,2013-06-09 10:28:00,
2013-06-09 00:33:00,71.4,67.7,30.05,NNE,23,7.0,7.0,88,0.00,,,0.00,VWS V14.01,2013-06-09 10:33:00,
2013-06-09 00:38:00,71.4,67.7,30.05,NNE,16,10.0,10.0,88,0.00,,,0.00,VWS V14.01,2013-06-09 10:38:00,
2013-06-09 00:43:00,71.3,67.6,30.05,NNE,15,9.0,9.0,88,0.00,,,0.00,VWS V14.01,2013-06-09 10:43:00,
2013-06-09 00:48:00,71.4,67.7,30.04,NNW,343,10.0,10.0,88,0.00,,,0.00,VWS V14.01,2013-06-09 10:48:00,
2013-06-09 00:53:00,71.4,67.7,30.04,NE,34,5.0,6.0,88,0.00,,,0.00,VWS V14.01,2013-06-09 10:53:00,
2013-06-09 00:58:00,71.5,67.8,30.04,NE,51,7.0,10.0,88,0.00,,,0.00,VWS V14.01,2013-06-09 10:58:00,
2013-06-09 01:04:00,71.6,68.2,30.04,NNE,29,8.0,12.0,89,0.00,,,0.00,VWS V14.01,2013-06-09 11:04:00,
2013-06-09 01:09:00,71.5,68.1,30.04,NE,40,11.0,11.0,89,0.00,,,0.00,VWS V14.01,2013-06-09 11:09:00,
2013-06-09 01:14:00,71.4,68.3,30.03,NNE,16,11.0,11.0,90,0.00,,,0.00,VWS V14.01,2013-06-09 11:14:00,
2013-06-09 01:19:00,71.1,67.7,30.03,NE,50,6.0,9.0,89,0.00,,,0.00,VWS V14.01,2013-06-09 11:19:00,
2013-06-09 01:24:00,70.9,66.8,30.03,NE,42,7.0,9.0,87,0.00,,,0.00,VWS V14.01,2013-06-09 11:24:00,
2013-06-09 01:29:00,71.0,65.9,30.03,NNE,28,10.0,10.0,84,0.00,,,0.00,VWS V14.01,2013-06-09 11:29:00,
2013-06-09 01:34:00,71.2,65.8,30.02,North,10,8.0,8.0,83,0.00,,,0.00,VWS V14.01,2013-06-09 11:34:00,
2013-06-09 01:39:00,71.4,64.9,30.02,NNE,23,10.0,11.0,80,0.00,,,0.00,VWS V14.01,2013-06-09 11:39:00,
2013-06-09 01:44:00,71.5,65.0,30.02,NNW,342,13.0,13.0,80,0.00,,,0.00,VWS V14.01,2013-06-09 11:44:00,
2013-06-09 01:49:00,71.6,65.5,30.02,North,359,12.0,12.0,81,0.00,,,0.00,VWS V14.01,2013-06-09 11:49:00,
2013-06-09 01:54:00,71.5,66.1,30.02,North,360,10.0,10.0,83,0.00,,,0.00,VWS V14.01,2013-06-09 11:54:00,
2013-06-09 01:59:00,71.4,66.3,30.02,North,10,8.0,9.0,84,0.00,,,0.00,VWS V14.01,2013-06-09 11:59:00,
2013-06-09 02:04:00,71.2,66.1,30.02,NNE,14,12.0,12.0,84,0.00,,,0.00,VWS V14.01,2013-06-09 12:04:00,
2013-06-09 02:09:00,71.1,66.0,30.02,NNE,21,11.0,11.0,84,0.00,,,0.00,VWS V14.01,2013-06-09 12:09:00,
2013-06-09 02:14:00,71.1,66.0,30.01,North,9,10.0,11.0,84,0.00,,,0.00,VWS V14.01,2013-06-09 12:14:00,
2013-06-09 02:20:00,71.1,66.0,30.01,NNE,16,12.0,12.0,84,0.00,,,0.00,VWS V14.01,2013-06-09 12:20:00,
2013-06-09 02:25:00,71.1,66.0,30.01,ESE,105,14.0,14.0,84,0.00,,,0.00,VWS V14.01,2013-06-09 12:25:00,
2013-06-09 02:30:00,71.0,66.3,30.01,NE,56,8.0,9.0,85,0.00,,,0.00,VWS V14.01,2013-06-09 12:30:00,
2013-06-09 02:35:00,71.0,66.6,30.01,North,360,7.0,8.0,86,0.00,,,0.00,VWS V14.01,2013-06-09 12:35:00,
2013-06-09 02:40:00,70.9,66.8,30.01,NE,38,10.0,10.0,87,0.00,,,0.00,VWS V14.01,2013-06-09 12:40:00,
2013-06-09 02:45:00,70.8,66.4,30.01,NNE,12,9.0,10.0,86,0.00,,,0.00,VWS V14.01,2013-06-09 12:45:00,
2013-06-09 02:50:00,70.9,66.5,30.00,NNE,18,5.0,6.0,86,0.00,,,0.00,VWS V14.01,2013-06-09 12:50:00,
2013-06-09 02:55:00,71.0,66.6,30.00,NNE,13,11.0,11.0,86,0.00,,,0.00,VWS V14.01,2013-06-09 12:55:00,
2013-06-09 03:00:00,71.2,66.8,30.00,NNE,19,11.0,18.0,86,0.00,,,0.00,VWS V14.01,2013-06-09 13:00:00,
2013-06-09 03:05:00,71.1,66.7,30.00,NNE,23,10.0,12.0,86,0.00,,,0.00,VWS V14.01,2013-06-09 13:05:00,
2013-06-09 03:10:00,71.1,66.4,30.00,North,359,18.0,20.0,85,0.00,,,0.00,VWS V14.01,2013-06-09 13:10:00,
2013-06-09 03:15:00,71.1,66.0,30.00,NNE,29,18.0,18.0,84,0.00,,,0.00,VWS V14.01,2013-06-09 13:15:00,
2013-06-09 03:20:00,71.3,66.6,30.00,NNE,30,6.0,7.0,85,0.00,,,0.00,VWS V14.01,2013-06-09 13:20:00,
2013-06-09 03:25:00,71.3,66.9,30.01,NNE,31,8.0,8.0,86,0.00,,,0.00,VWS V14.01,2013-06-09 13:25:00,
2013-06-09 03:30:00,71.2,67.1,30.00,NE,39,7.0,7.0,87,0.00,,,0.00,VWS V14.01,2013-06-09 13:30:00,
2013-06-09 03:35:00,71.1,67.0,30.00,NNE,14,11.0,12.0,87,0.00,,,0.00,VWS V14.01,2013-06-09 13:35:00,
2013-06-09 03:40:00,71.1,66.7,30.01,North,350,4.0,5.0,86,0.00,,,0.00,VWS V14.01,2013-06-09 13:40:00,
2013-06-09 03:45:00,71.2,66.5,30.01,NE,48,7.0,7.0,85,0.00,,,0.00,VWS V14.01,2013-06-09 13:45:00,
2013-06-09 03:50:00,71.3,66.6,30.01,NE,38,9.0,9.0,85,0.00,,,0.00,VWS V14.01,2013-06-09 13:50:00,
2013-06-09 03:56:00,71.4,66.7,30.01,NNE,12,10.0,15.0,85,0.00,,,0.00,VWS V14.01,2013-06-09 13:56:00,
2013-06-09 04:01:00,71.5,67.1,30.01,North,360,12.0,12.0,86,0.00,,,0.00,VWS V14.01,2013-06-09 14:01:00,
2013-06-09 04:06:00,71.4,67.0,30.01,NNE,20,8.0,9.0,86,0.00,,,0.00,VWS V14.01,2013-06-09 14:06:00,
2013-06-09 04:11:00,71.4,67.3,30.01,NE,36,9.0,9.0,87,0.00,,,0.00,VWS V14.01,2013-06-09 14:11:00,
2013-06-09 04:16:00,71.3,67.2,30.01,NE,41,5.0,6.0,87,0.00,,,0.00,VWS V14.01,2013-06-09 14:16:00,
2013-06-09 04:21:00,71.2,67.1,30.01,NNE,32,10.0,10.0,87,0.00,,,0.00,VWS V14.01,2013-06-09 14:21:00,
2013-06-09 04:26:00,71.2,67.1,30.01,NNE,14,10.0,13.0,87,0.00,,,0.00,VWS V14.01,2013-06-09 14:26:00,
2013-06-09 04:31:00,71.2,67.1,30.01,North,353,15.0,15.0,87,0.00,,,0.00,VWS V14.01,2013-06-09 14:31:00,
2013-06-09 04:36:00,71.3,66.9,30.01,NNE,26,12.0,12.0,86,0.00,,,0.00,VWS V14.01,2013-06-09 14:36:00,
2013-06-09 04:41:00,71.3,66.9,30.01,North,5,17.0,17.0,86,0.00,,,0.00,VWS V14.01,2013-06-09 14:41:00,
2013-06-09 04:47:00,71.4,67.0,30.01,NNE,14,9.0,9.0,86,0.00,,,0.00,VWS V14.01,2013-06-09 14:47:00,
2013-06-09 04:52:00,71.4,67.3,30.01,NNE,21,6.0,11.0,87,0.00,,,0.00,VWS V14.01,2013-06-09 14:52:00,
2013-06-09 04:57:00,71.3,67.2,30.01,NNE,22,9.0,13.0,87,0.00,,,0.00,VWS V14.01,2013-06-09 14:57:00,
2013-06-09 05:02:00,71.3,67.2,30.02,NE,48,4.0,6.0,87,0.00,,,0.00,VWS V14.01,2013-06-09 15:02:00,
2013-06-09 05:07:00,71.3,66.9,30.02,NNE,16,6.0,6.0,86,0.00,,,0.00,VWS V14.01,2013-06-09 15:07:00,
2013-06-09 05:12:00,71.3,66.9,30.02,NNE,16,10.0,10.0,86,0.00,,,0.00,VWS V14.01,2013-06-09 15:12:00,
2013-06-09 05:17:00,71.3,67.2,30.02,ENE,68,7.0,7.0,87,0.00,,,0.00,VWS V14.01,2013-06-09 15:17:00,
2013-06-09 05:22:00,71.3,67.2,30.02,NNE,30,7.0,13.0,87,0.00,,,0.00,VWS V14.01,2013-06-09 15:22:00,
2013-06-09 05:27:00,71.2,67.1,30.03,NE,50,6.0,9.0,87,0.00,,,0.00,VWS V14.01,2013-06-09 15:27:00,
2013-06-09 05:32:00,71.1,66.7,30.03,NNE,28,7.0,10.0,86,0.00,,,0.00,VWS V14.01,2013-06-09 15:32:00,
2013-06-09 05:37:00,71.2,66.8,30.03,NNE,25,7.0,7.0,86,0.00,,,0.00,VWS V14.01,2013-06-09 15:37:00,
2013-06-09 05:42:00,71.2,66.5,30.03,NE,35,6.0,11.0,85,0.00,,,0.00,VWS V14.01,2013-06-09 15:42:00,
2013-06-09 05:47:00,71.3,66.6,30.03,NE,48,7.0,8.0,85,0.00,,,0.00,VWS V14.01,2013-06-09 15:47:00,
2013-06-09 05:52:00,71.3,66.6,30.03,NE,45,7.0,9.0,85,0.00,,,0.00,VWS V14.01,2013-06-09 15:52:00,
2013-06-09 05:57:00,71.3,66.6,30.03,NNE,20,12.0,12.0,85,0.00,,,0.00,VWS V14.01,2013-06-09 15:57:00,
2013-06-09 06:02:00,71.4,66.7,30.04,NE,48,8.0,9.0,85,0.00,,,0.00,VWS V14.01,2013-06-09 16:02:00,
2013-06-09 06:08:00,71.3,66.6,30.04,NE,47,6.0,7.0,85,0.00,,,0.00,VWS V14.01,2013-06-09 16:08:00,
2013-06-09 06:13:00,71.3,66.9,30.05,NNE,31,8.0,11.0,86,0.00,,,0.00,VWS V14.01,2013-06-09 16:13:00,
2013-06-09 06:18:00,71.3,66.9,30.05,NNE,21,11.0,11.0,86,0.00,,,0.00,VWS V14.01,2013-06-09 16:18:00,
2013-06-09 06:23:00,71.3,67.2,30.05,NNE,33,9.0,12.0,87,0.00,,,0.00,VWS V14.01,2013-06-09 16:23:00,
2013-06-09 06:28:00,71.3,67.2,30.05,NNE,19,6.0,6.0,87,0.00,,,0.00,VWS V14.01,2013-06-09 16:28:00,
2013-06-09 06:33:00,71.2,67.5,30.05,NE,49,12.0,12.0,88,0.00,,,0.00,VWS V14.01,2013-06-09 16:33:00,
2013-06-09 06:38:00,71.2,67.5,30.05,NNE,15,5.0,7.0,88,0.00,,,0.00,VWS V14.01,2013-06-09 16:38:00,
2013-06-09 06:43:00,71.2,67.1,30.06,NE,43,5.0,5.0,87,0.00,,,0.00,VWS V14.01,2013-06-09 16:43:00,
2013-06-09 06:48:00,71.2,67.1,30.06,NE,34,6.0,7.0,87,0.00,,,0.00,VWS V14.01,2013-06-09 16:48:00,
2013-06-09 06:53:00,71.2,66.8,30.06,North,10,5.0,7.0,86,0.00,,,0.00,VWS V14.01,2013-06-09 16:53:00,
2013-06-09 06:58:00,71.3,66.9,30.06,NE,41,5.0,6.0,86,0.00,,,0.00,VWS V14.01,2013-06-09 16:58:00,
2013-06-09 07:03:00,71.2,66.8,30.06,NNE,31,7.0,11.0,86,0.00,,,0.00,VWS V14.01,2013-06-09 17:03:00,
2013-06-09 07:08:00,71.3,66.6,30.06,NE,49,7.0,7.0,85,0.00,,,0.00,VWS V14.01,2013-06-09 17:08:00,
2013-06-09 07:13:00,71.3,66.6,30.06,ENE,60,6.0,8.0,85,0.00,,,0.00,VWS V14.01,2013-06-09 17:13:00,
2013-06-09 07:19:00,71.3,66.6,30.06,NE,42,14.0,17.0,85,0.00,,,0.00,VWS V14.01,2013-06-09 17:19:00,
2013-06-09 07:24:00,71.4,66.3,30.06,NNE,17,13.0,15.0,84,0.00,,,0.00,VWS V14.01,2013-06-09 17:24:00,
2013-06-09 07:29:00,71.5,66.4,30.06,North,7,11.0,16.0,84,0.00,,,0.00,VWS V14.01,2013-06-09 17:29:00,
2013-06-09 07:34:00,71.3,66.6,30.07,NNE,25,14.0,15.0,85,0.00,,,0.00,VWS V14.01,2013-06-09 17:34:00,
2013-06-09 07:39:00,71.2,66.8,30.07,NNE,16,9.0,16.0,86,0.00,,,0.00,VWS V14.01,2013-06-09 17:39:00,
2013-06-09 07:44:00,71.5,67.1,30.07,NE,45,6.0,6.0,86,0.00,,,0.00,VWS V14.01,2013-06-09 17:44:00,
2013-06-09 07:49:00,71.6,67.2,30.07,North,3,4.0,4.0,86,0.00,,,0.00,VWS V14.01,2013-06-09 17:49:00,
2013-06-09 07:54:00,71.9,67.2,30.07,North,8,7.0,8.0,85,0.00,,,0.00,VWS V14.01,2013-06-09 17:54:00,
2013-06-09 07:59:00,72.2,67.4,30.07,ENE,57,4.0,4.0,85,0.00,,,0.00,VWS V14.01,2013-06-09 17:59:00,
2013-06-09 08:04:00,72.7,67.9,30.07,NNE,21,6.0,6.0,85,0.00,,,0.00,VWS V14.01,2013-06-09 18:04:00,
2013-06-09 08:09:00,72.8,68.0,30.07,NNE,24,11.0,11.0,85,0.00,,,0.00,VWS V14.01,2013-06-09 18:09:00,
2013-06-09 08:14:00,72.7,68.3,30.07,ESE,104,9.0,11.0,86,0.00,,,0.00,VWS V14.01,2013-06-09 18:14:00,
2013-06-09 08:20:00,72.3,67.9,30.07,East,92,4.0,9.0,86,0.00,,,0.00,VWS V14.01,2013-06-09 18:20:00,
2013-06-09 08:25:00,71.9,67.2,30.07,East,100,9.0,12.0,85,0.00,,,0.00,VWS V14.01,2013-06-09 18:25:00,
2013-06-09 08:30:00,71.7,66.9,30.08,ENE,68,7.0,9.0,85,0.00,,,0.00,VWS V14.01,2013-06-09 18:30:00,
2013-06-09 08:35:00,71.7,67.3,30.08,NNE,28,5.0,8.0,86,0.00,,,0.00,VWS V14.01,2013-06-09 18:35:00,
2013-06-09 08:40:00,71.9,67.5,30.08,NE,56,5.0,9.0,86,0.00,,,0.00,VWS V14.01,2013-06-09 18:40:00,
2013-06-09 08:45:00,72.2,67.8,30.08,NNE,16,12.0,15.0,86,0.00,,,0.00,VWS V14.01,2013-06-09 18:45:00,
2013-06-09 08:50:00,72.4,68.3,30.08,East,97,8.0,8.0,87,0.00,,,0.00,VWS V14.01,2013-06-09 18:50:00,
2013-06-09 08:55:00,72.3,68.2,30.08,NNE,32,12.0,12.0,87,0.00,,,0.00,VWS V14.01,2013-06-09 18:55:00,
2013-06-09 09:00:00,72.0,67.9,30.08,NE,49,5.0,5.0,87,0.00,,,0.00,VWS V14.01,2013-06-09 19:00:00,
2013-06-09 09:05:00,72.1,68.0,30.08,ESE,103,12.0,12.0,87,0.00,,,0.00,VWS V14.01,2013-06-09 19:05:00,
2013-06-09 09:10:00,71.8,68.1,30.08,NE,49,9.0,9.0,88,0.00,,,0.00,VWS V14.01,2013-06-09 19:10:00,
2013-06-09 09:16:00,71.4,68.0,30.08,ENE,57,6.0,6.0,89,0.00,,,0.00,VWS V14.01,2013-06-09 19:16:00,
2013-06-09 09:21:00,71.5,68.4,30.08,ENE,63,7.0,7.0,90,0.00,,,0.00,VWS V14.01,2013-06-09 19:21:00,
2013-06-09 09:26:00,71.2,67.8,30.08,ENE,62,7.0,8.0,89,0.00,,,0.00,VWS V14.01,2013-06-09 19:26:00,
2013-06-09 09:31:00,71.1,68.0,30.08,ENE,61,4.0,6.0,90,0.00,,,0.00,VWS V14.01,2013-06-09 19:31:00,
2013-06-09 09:36:00,71.1,68.3,30.08,ENE,61,6.0,6.0,91,0.00,,,0.00,VWS V14.01,2013-06-09 19:36:00,
2013-06-09 09:41:00,71.2,68.4,30.08,NE,52,5.0,5.0,91,0.00,,,0.00,VWS V14.01,2013-06-09 19:41:00,
2013-06-09 09:46:00,71.5,68.7,30.08,NNE,23,4.0,7.0,91,0.00,,,0.00,VWS V14.01,2013-06-09 19:46:00,
2013-06-09 09:51:00,71.8,68.7,30.08,NNE,17,6.0,10.0,90,0.00,,,0.00,VWS V14.01,2013-06-09 19:51:00,
2013-06-09 09:56:00,72.0,68.3,30.08,North,8,11.0,12.0,88,0.00,,,0.00,VWS V14.01,2013-06-09 19:56:00,
2013-06-09 10:01:00,72.3,68.6,30.08,NE,50,8.0,8.0,88,0.00,,,0.00,VWS V14.01,2013-06-09 20:01:00,
2013-06-09 10:06:00,72.9,68.1,30.08,NNW,329,8.0,10.0,85,0.00,,,0.00,VWS V14.01,2013-06-09 20:06:00,
2013-06-09 10:11:00,73.2,68.4,30.08,NE,52,12.0,12.0,85,0.00,,,0.00,VWS V14.01,2013-06-09 20:11:00,
2013-06-09 10:16:00,73.3,68.5,30.08,NE,47,7.0,9.0,85,0.00,,,0.00,VWS V14.01,2013-06-09 20:16:00,
2013-06-09 10:21:00,73.2,68.4,30.08,ENE,57,9.0,9.0,85,0.00,,,0.00,VWS V14.01,2013-06-09 20:21:00,
2013-06-09 10:26:00,73.5,68.7,30.08,East,92,6.0,9.0,85,0.00,,,0.00,VWS V14.01,2013-06-09 20:26:00,
2013-06-09 10:31:00,73.5,68.7,30.08,ENE,69,10.0,11.0,85,0.00,,,0.00,VWS V14.01,2013-06-09 20:31:00,
2013-06-09 10:36:00,73.4,68.6,30.08,East,93,10.0,11.0,85,0.00,,,0.00,VWS V14.01,2013-06-09 20:36:00,
2013-06-09 10:41:00,73.5,68.4,30.08,East,81,6.0,8.0,84,0.00,,,0.00,VWS V14.01,2013-06-09 20:41:00,
2013-06-09 10:46:00,73.6,68.8,30.08,ENE,64,10.0,10.0,85,0.00,,,0.00,VWS V14.01,2013-06-09 20:46:00,
2013-06-09 10:51:00,73.5,68.7,30.08,NNE,14,6.0,7.0,85,0.00,,,0.00,VWS V14.01,2013-06-09 20:51:00,
2013-06-09 10:57:00,73.5,68.7,30.08,ENE,76,12.0,13.0,85,0.00,,,0.00,VWS V14.01,2013-06-09 20:57:00,
2013-06-09 11:02:00,73.7,68.6,30.08,NE,46,11.0,11.0,84,0.00,,,0.00,VWS V14.01,2013-06-09 21:02:00,
2013-06-09 11:07:00,74.1,68.6,30.08,ENE,73,8.0,11.0,83,0.00,,,0.00,VWS V14.01,2013-06-09 21:07:00,
2013-06-09 11:12:00,74.3,68.1,30.08,East,101,13.0,16.0,81,0.00,,,0.00,VWS V14.01,2013-06-09 21:12:00,
2013-06-09 11:17:00,74.6,67.7,30.08,NE,36,8.0,10.0,79,0.00,,,0.00,VWS V14.01,2013-06-09 21:17:00,
2013-06-09 11:22:00,75.0,68.4,30.08,ESE,115,18.0,18.0,80,0.00,,,0.00,VWS V14.01,2013-06-09 21:22:00,
2013-06-09 11:27:00,75.1,68.2,30.08,ENE,59,10.0,11.0,79,0.00,,,0.00,VWS V14.01,2013-06-09 21:27:00,
2013-06-09 11:32:00,75.1,67.8,30.07,East,100,8.0,8.0,78,0.00,,,0.00,VWS V14.01,2013-06-09 21:32:00,
2013-06-09 11:37:00,74.9,67.6,30.07,NE,47,11.0,12.0,78,0.00,,,0.00,VWS V14.01,2013-06-09 21:37:00,
2013-06-09 11:42:00,74.4,67.5,30.07,ENE,63,11.0,12.0,79,0.00,,,0.00,VWS V14.01,2013-06-09 21:42:00,
2013-06-09 11:47:00,74.1,67.9,30.07,NE,54,10.0,12.0,81,0.00,,,0.00,VWS V14.01,2013-06-09 21:47:00,
2013-06-09 11:52:00,73.9,67.3,30.07,East,79,17.0,17.0,80,0.00,,,0.00,VWS V14.01,2013-06-09 21:52:00,
2013-06-09 11:57:00,74.1,67.5,30.07,ENE,74,13.0,13.0,80,0.00,,,0.00,VWS V14.01,2013-06-09 21:57:00,
2013-06-09 12:03:00,74.1,67.5,30.07,ENE,68,16.0,16.0,80,0.00,,,0.00,VWS V14.01,2013-06-09 22:03:00,
2013-06-09 12:08:00,74.4,67.8,30.07,ENE,64,7.0,13.0,80,0.00,,,0.00,VWS V14.01,2013-06-09 22:08:00,
2013-06-09 12:13:00,74.6,68.0,30.07,ENE,65,11.0,11.0,80,0.00,,,0.00,VWS V14.01,2013-06-09 22:13:00,
2013-06-09 12:18:00,75.2,68.2,30.07,ENE,61,10.0,14.0,79,0.00,,,0.00,VWS V14.01,2013-06-09 22:18:00,
2013-06-09 12:23:00,75.4,67.7,30.07,East,87,8.0,12.0,77,0.00,,,0.00,VWS V14.01,2013-06-09 22:23:00,
2013-06-09 12:28:00,75.7,68.4,30.06,ENE,72,9.0,9.0,78,0.00,,,0.00,VWS V14.01,2013-06-09 22:28:00,
2013-06-09 12:33:00,75.5,68.2,30.06,NE,48,10.0,10.0,78,0.00,,,0.00,VWS V14.01,2013-06-09 22:33:00,
2013-06-09 12:38:00,75.2,68.6,30.06,ENE,60,7.0,9.0,80,0.00,,,0.00,VWS V14.01,2013-06-09 22:38:00,
2013-06-09 12:43:00,75.3,69.4,30.06,East,80,13.0,15.0,82,0.00,,,0.00,VWS V14.01,2013-06-09 22:43:00,
2013-06-09 12:49:00,74.9,68.7,30.06,ENE,57,12.0,12.0,81,0.00,,,0.00,VWS V14.01,2013-06-09 22:49:00,
2013-06-09 12:54:00,74.8,68.9,30.06,ENE,64,15.0,15.0,82,0.00,,,0.00,VWS V14.01,2013-06-09 22:54:00,
2013-06-09 12:59:00,74.4,68.6,30.06,NE,52,13.0,13.0,82,0.00,,,0.00,VWS V14.01,2013-06-09 22:59:00,
2013-06-09 13:04:00,74.5,68.7,30.05,East,83,11.0,14.0,82,0.00,,,0.00,VWS V14.01,2013-06-09 23:04:00,
2013-06-09 13:09:00,74.4,68.2,30.06,ENE,60,13.0,13.0,81,0.00,,,0.00,VWS V14.01,2013-06-09 23:09:00,
2013-06-09 13:14:00,74.4,67.8,30.05,NE,38,12.0,17.0,80,0.00,,,0.00,VWS V14.01,2013-06-09 23:14:00,
2013-06-09 13:19:00,74.4,67.8,30.05,NE,53,6.0,10.0,80,0.00,,,0.00,VWS V14.01,2013-06-09 23:19:00,
2013-06-09 13:24:00,74.4,68.2,30.05,NNE,31,8.0,8.0,81,0.00,,,0.00,VWS V14.01,2013-06-09 23:24:00,
2013-06-09 13:29:00,74.5,68.3,30.05,ENE,58,7.0,10.0,81,0.00,,,0.00,VWS V14.01,2013-06-09 23:29:00,
2013-06-09 13:34:00,74.5,69.0,30.05,ESE,107,10.0,13.0,83,0.00,,,0.00,VWS V14.01,2013-06-09 23:34:00,
2013-06-09 13:39:00,74.2,69.1,30.05,ENE,62,8.0,9.0,84,0.00,,,0.00,VWS V14.01,2013-06-09 23:39:00,
2013-06-09 13:44:00,74.2,68.7,30.05,ENE,66,6.0,8.0,83,0.00,,,0.00,VWS V14.01,2013-06-09 23:44:00,
2013-06-09 13:49:00,74.0,68.5,30.05,ENE,57,6.0,9.0,83,0.00,,,0.00,VWS V14.01,2013-06-09 23:49:00,
2013-06-09 13:54:00,74.1,68.3,30.05,ENE,65,5.0,6.0,82,0.00,,,0.00,VWS V14.01,2013-06-09 23:54:00,
2013-06-09 13:59:00,74.2,68.0,30.05,NE,41,6.0,9.0,81,0.00,,,0.00,VWS V14.01,2013-06-09 23:59:00,
2013-06-09 14:04:00,74.1,68.3,30.05,ENE,65,11.0,11.0,82,0.00,,,0.00,VWS V14.01,2013-06-10 00:04:00,
2013-06-09 14:09:00,74.3,68.8,30.05,ENE,59,12.0,12.0,83,0.00,,,0.00,VWS V14.01,2013-06-10 00:09:00,
2013-06-09 14:14:00,74.4,68.6,30.04,East,83,9.0,10.0,82,0.00,,,0.00,VWS V14.01,2013-06-10 00:14:00,
2013-06-09 14:19:00,74.7,68.5,30.04,East,93,10.0,10.0,81,0.00,,,0.00,VWS V14.01,2013-06-10 00:19:00,
2013-06-09 14:25:00,74.7,68.1,30.04,ESE,103,12.0,12.0,80,0.00,,,0.00,VWS V14.01,2013-06-10 00:25:00,
2013-06-09 14:30:00,74.6,67.7,30.04,NE,56,18.0,18.0,79,0.00,,,0.00,VWS V14.01,2013-06-10 00:30:00,
2013-06-09 14:35:00,74.3,67.7,30.04,NE,50,11.0,13.0,80,0.00,,,0.00,VWS V14.01,2013-06-10 00:35:00,
2013-06-09 14:40:00,74.2,68.0,30.04,ENE,59,8.0,10.0,81,0.00,,,0.00,VWS V14.01,2013-06-10 00:40:00,
2013-06-09 14:45:00,73.9,67.3,30.04,ENE,57,15.0,17.0,80,0.00,,,0.00,VWS V14.01,2013-06-10 00:45:00,
2013-06-09 14:50:00,73.9,68.1,30.04,North,9,14.0,14.0,82,0.00,,,0.00,VWS V14.01,2013-06-10 00:50:00,
2013-06-09 14:55:00,73.6,67.8,30.04,NE,40,5.0,7.0,82,0.00,,,0.00,VWS V14.01,2013-06-10 00:55:00,
2013-06-09 15:00:00,73.7,67.9,30.04,NE,52,9.0,10.0,82,0.00,,,0.00,VWS V14.01,2013-06-10 01:00:00,
2013-06-09 15:05:00,73.8,68.0,30.03,NE,50,13.0,17.0,82,0.00,,,0.00,VWS V14.01,2013-06-10 01:05:00,
2013-06-09 15:10:00,73.5,68.0,30.03,NNE,16,23.0,23.0,83,0.00,,,0.00,VWS V14.01,2013-06-10 01:10:00,
2013-06-09 15:15:00,73.3,67.8,30.03,NNE,32,9.0,9.0,83,0.00,,,0.00,VWS V14.01,2013-06-10 01:15:00,
2013-06-09 15:20:00,73.3,68.5,30.04,NE,50,15.0,15.0,85,0.00,,,0.00,VWS V14.01,2013-06-10 01:20:00,
2013-06-09 15:25:00,73.1,68.0,30.03,ENE,64,10.0,10.0,84,0.00,,,0.00,VWS V14.01,2013-06-10 01:25:00,
2013-06-09 15:30:00,73.2,68.1,30.03,NE,44,15.0,15.0,84,0.00,,,0.00,VWS V14.01,2013-06-10 01:30:00,
2013-06-09 15:35:00,73.4,67.9,30.03,NE,45,9.0,12.0,83,0.00,,,0.00,VWS V14.01,2013-06-10 01:35:00,
2013-06-09 15:40:00,73.5,67.7,30.03,NE,42,10.0,14.0,82,0.00,,,0.00,VWS V14.01,2013-06-10 01:40:00,
2013-06-09 15:45:00,73.8,67.6,30.03,ENE,72,9.0,11.0,81,0.00,,,0.00,VWS V14.01,2013-06-10 01:45:00,
2013-06-09 15:50:00,73.8,67.6,30.03,NNE,27,13.0,13.0,81,0.00,,,0.00,VWS V14.01,2013-06-10 01:50:00,
2013-06-09 15:55:00,74.1,67.9,30.03,ENE,76,13.0,13.0,81,0.00,,,0.00,VWS V14.01,2013-06-10 01:55:00,
2013-06-09 16:01:00,74.0,67.8,30.03,ENE,60,12.0,12.0,81,0.00,,,0.00,VWS V14.01,2013-06-10 02:01:00,
2013-06-09 16:06:00,73.8,67.6,30.03,ENE,60,13.0,14.0,81,0.00,,,0.00,VWS V14.01,2013-06-10 02:06:00,
2013-06-09 16:11:00,73.8,68.0,30.03,ENE,58,9.0,10.0,82,0.00,,,0.00,VWS V14.01,2013-06-10 02:11:00,
2013-06-09 16:16:00,73.5,67.7,30.03,NNE,16,11.0,11.0,82,0.00,,,0.00,VWS V14.01,2013-06-10 02:16:00,
2013-06-09 16:21:00,73.4,67.2,30.03,NE,54,11.0,11.0,81,0.00,,,0.00,VWS V14.01,2013-06-10 02:21:00,
2013-06-09 16:26:00,73.5,67.3,30.03,NE,36,11.0,11.0,81,0.00,,,0.00,VWS V14.01,2013-06-10 02:26:00,
2013-06-09 16:31:00,73.5,67.0,30.03,NE,45,13.0,13.0,80,0.00,,,0.00,VWS V14.01,2013-06-10 02:31:00,
2013-06-09 16:36:00,73.4,66.5,30.03,NE,47,6.0,6.0,79,0.00,,,0.00,VWS V14.01,2013-06-10 02:36:00,
2013-06-09 16:41:00,73.6,66.7,30.02,NE,50,7.0,8.0,79,0.00,,,0.00,VWS V14.01,2013-06-10 02:41:00,
2013-06-09 16:47:00,73.6,67.1,30.02,ENE,73,12.0,12.0,80,0.00,,,0.00,VWS V14.01,2013-06-10 02:47:00,
2013-06-09 16:52:00,73.5,67.7,30.02,NNE,33,14.0,17.0,82,0.00,,,0.00,VWS V14.01,2013-06-10 02:52:00,
2013-06-09 16:57:00,73.2,67.7,30.02,ENE,68,12.0,12.0,83,0.00,,,0.00,VWS V14.01,2013-06-10 02:57:00,
2013-06-09 17:02:00,73.2,68.1,30.02,NE,52,9.0,10.0,84,0.00,,,0.00,VWS V14.01,2013-06-10 03:02:00,
2013-06-09 17:07:00,73.1,68.0,30.02,NNE,30,9.0,11.0,84,0.00,,,0.00,VWS V14.01,2013-06-10 03:07:00,
2013-06-09 17:12:00,72.8,68.0,30.03,East,94,15.0,17.0,85,0.00,,,0.00,VWS V14.01,2013-06-10 03:12:00,
2013-06-09 17:17:00,72.7,67.9,30.03,NNE,31,10.0,13.0,85,0.00,,,0.00,VWS V14.01,2013-06-10 03:17:00,
2013-06-09 17:22:00,72.7,67.9,30.03,NNE,14,9.0,9.0,85,0.00,,,0.00,VWS V14.01,2013-06-10 03:22:00,
2013-06-09 17:27:00,72.7,67.9,30.03,NNE,33,7.0,11.0,85,0.00,,,0.00,VWS V14.01,2013-06-10 03:27:00,
2013-06-09 17:32:00,72.7,67.9,30.03,NE,54,9.0,12.0,85,0.00,,,0.00,VWS V14.01,2013-06-10 03:32:00,
2013-06-09 17:37:00,72.7,67.9,30.03,NE,54,11.0,11.0,85,0.00,,,0.00,VWS V14.01,2013-06-10 03:37:00,
2013-06-09 17:42:00,72.6,67.5,30.03,East,97,8.0,15.0,84,0.00,,,0.00,VWS V14.01,2013-06-10 03:42:00,
2013-06-09 17:48:00,72.7,67.2,30.03,NE,48,10.0,10.0,83,0.00,,,0.00,VWS V14.01,2013-06-10 03:48:00,
2013-06-09 17:53:00,72.7,67.2,30.03,ENE,57,10.0,14.0,83,0.00,,,0.00,VWS V14.01,2013-06-10 03:53:00,
2013-06-09 17:58:00,72.7,67.9,30.03,NNE,24,12.0,15.0,85,0.00,,,0.00,VWS V14.01,2013-06-10 03:58:00,
2013-06-09 18:01:00,72.6,67.8,30.03,NE,42,9.0,9.0,85,0.00,,,0.00,VWS V14.01,2013-06-10 04:01:00,
2013-06-09 18:03:00,72.5,67.7,30.03,North,5,10.0,10.0,85,0.00,,,0.00,VWS V14.01,2013-06-10 04:03:00,
2013-06-09 18:08:00,72.5,68.1,30.03,NE,37,9.0,12.0,86,0.00,,,0.00,VWS V14.01,2013-06-10 04:08:00,
2013-06-09 18:13:00,72.4,68.0,30.04,NNE,18,9.0,10.0,86,0.00,,,0.00,VWS V14.01,2013-06-10 04:13:00,
2013-06-09 18:19:00,72.4,68.0,30.04,ENE,62,11.0,13.0,86,0.00,,,0.00,VWS V14.01,2013-06-10 04:19:00,
2013-06-09 18:24:00,72.3,67.5,30.04,NE,38,6.0,8.0,85,0.00,,,0.00,VWS V14.01,2013-06-10 04:24:00,
2013-06-09 18:29:00,72.2,67.4,30.04,NNE,12,11.0,17.0,85,0.00,,,0.00,VWS V14.01,2013-06-10 04:29:00,
2013-06-09 18:34:00,72.2,67.4,30.04,North,10,8.0,9.0,85,0.00,,,0.00,VWS V14.01,2013-06-10 04:34:00,
2013-06-09 18:39:00,72.2,67.4,30.04,NE,35,10.0,10.0,85,0.00,,,0.00,VWS V14.01,2013-06-10 04:39:00,
2013-06-09 18:44:00,72.2,67.8,30.04,North,10,19.0,20.0,86,0.00,,,0.00,VWS V14.01,2013-06-10 04:44:00,
2013-06-09 18:49:00,72.1,67.7,30.04,NE,42,1.0,1.0,86,0.00,,,0.00,VWS V14.01,2013-06-10 04:49:00,
2013-06-09 18:54:00,72.1,67.7,30.05,NNE,25,11.0,11.0,86,0.00,,,0.00,VWS V14.01,2013-06-10 04:54:00,
2013-06-09 18:59:00,72.1,67.7,30.05,NE,50,9.0,9.0,86,0.00,,,0.00,VWS V14.01,2013-06-10 04:59:00,
2013-06-09 19:04:00,72.0,67.9,30.05,NNE,28,5.0,5.0,87,0.00,,,0.00,VWS V14.01,2013-06-10 05:04:00,
2013-06-09 19:09:00,72.0,67.9,30.05,NE,38,8.0,8.0,87,0.00,,,0.00,VWS V14.01,2013-06-10 05:09:00,
2013-06-09 19:14:00,71.9,67.8,30.05,NNE,16,7.0,9.0,87,0.00,,,0.00,VWS V14.01,2013-06-10 05:14:00,
2013-06-09 19:19:00,71.9,67.5,30.05,North,357,7.0,13.0,86,0.00,,,0.00,VWS V14.01,2013-06-10 05:19:00,
2013-06-09 19:24:00,71.9,67.5,30.05,NNE,14,5.0,7.0,86,0.00,,,0.00,VWS V14.01,2013-06-10 05:24:00,
2013-06-09 19:29:00,71.9,67.5,30.05,NNE,17,14.0,14.0,86,0.00,,,0.00,VWS V14.01,2013-06-10 05:29:00,
2013-06-09 19:35:00,72.0,67.2,30.05,NNW,337,8.0,9.0,85,0.00,,,0.00,VWS V14.01,2013-06-10 05:35:00,
2013-06-09 19:40:00,72.0,67.6,30.06,NNE,25,7.0,7.0,86,0.00,,,0.00,VWS V14.01,2013-06-10 05:40:00,
2013-06-09 19:45:00,72.0,67.2,30.05,NNE,18,12.0,12.0,85,0.00,,,0.00,VWS V14.01,2013-06-10 05:45:00,
2013-06-09 19:50:00,72.0,67.2,30.06,NNE,28,13.0,15.0,85,0.00,,,0.00,VWS V14.01,2013-06-10 05:50:00,
2013-06-09 19:55:00,72.1,67.0,30.06,NE,40,10.0,11.0,84,0.00,,,0.00,VWS V14.01,2013-06-10 05:55:00,
2013-06-09 20:00:00,72.1,67.0,30.06,NE,43,9.0,10.0,84,0.00,,,0.00,VWS V14.01,2013-06-10 06:00:00,
2013-06-09 20:05:00,72.2,67.1,30.07,NE,36,8.0,8.0,84,0.00,,,0.00,VWS V14.01,2013-06-10 06:05:00,
2013-06-09 20:10:00,72.2,67.1,30.06,NNE,22,4.0,4.0,84,0.00,,,0.00,VWS V14.01,2013-06-10 06:10:00,
2013-06-09 20:15:00,72.1,67.3,30.07,North,8,4.0,4.0,85,0.00,,,0.00,VWS V14.01,2013-06-10 06:15:00,
2013-06-09 20:20:00,72.1,67.3,30.07,NNE,33,7.0,10.0,85,0.00,,,0.00,VWS V14.01,2013-06-10 06:20:00,
2013-06-09 20:25:00,72.1,67.3,30.07,NNE,12,8.0,11.0,85,0.00,,,0.00,VWS V14.01,2013-06-10 06:25:00,
2013-06-09 20:30:00,72.0,67.2,30.07,NNE,19,4.0,4.0,85,0.00,,,0.00,VWS V14.01,2013-06-10 06:30:00,
2013-06-09 20:35:00,72.0,67.6,30.07,NE,50,4.0,9.0,86,0.00,,,0.00,VWS V14.01,2013-06-10 06:35:00,
2013-06-09 20:41:00,72.0,67.6,30.07,NNE,28,9.0,9.0,86,0.00,,,0.00,VWS V14.01,2013-06-10 06:41:00,
2013-06-09 20:46:00,72.0,67.6,30.07,NNE,12,10.0,10.0,86,0.00,,,0.00,VWS V14.01,2013-06-10 06:46:00,
2013-06-09 20:51:00,72.0,67.2,30.08,NE,35,9.0,10.0,85,0.00,,,0.00,VWS V14.01,2013-06-10 06:51:00,
2013-06-09 20:56:00,71.9,67.2,30.08,NE,44,6.0,8.0,85,0.00,,,0.00,VWS V14.01,2013-06-10 06:56:00,
2013-06-09 21:01:00,71.8,67.1,30.08,NE,35,6.0,8.0,85,0.00,,,0.00,VWS V14.01,2013-06-10 07:01:00,
2013-06-09 21:06:00,71.8,67.1,30.08,NE,38,5.0,5.0,85,0.00,,,0.00,VWS V14.01,2013-06-10 07:06:00,
2013-06-09 21:11:00,71.6,66.9,30.08,ENE,78,3.0,5.0,85,0.00,,,0.00,VWS V14.01,2013-06-10 07:11:00,
2013-06-09 21:16:00,71.6,67.2,30.09,NNE,32,5.0,5.0,86,0.00,,,0.00,VWS V14.01,2013-06-10 07:16:00,
2013-06-09 21:22:00,71.7,67.3,30.08,NNE,26,10.0,11.0,86,0.00,,,0.00,VWS V14.01,2013-06-10 07:22:00,
2013-06-09 21:27:00,71.6,67.2,30.09,NNE,26,6.0,6.0,86,0.00,,,0.00,VWS V14.01,2013-06-10 07:27:00,
2013-06-09 21:32:00,71.5,67.1,30.08,NNE,17,10.0,10.0,86,0.00,,,0.00,VWS V14.01,2013-06-10 07:32:00,
2013-06-09 21:37:00,71.4,67.0,30.09,North,350,7.0,7.0,86,0.00,,,0.00,VWS V14.01,2013-06-10 07:37:00,
2013-06-09 21:42:00,71.4,66.3,30.09,NNE,24,8.0,8.0,84,0.00,,,0.00,VWS V14.01,2013-06-10 07:42:00,
2013-06-09 21:47:00,71.6,66.5,30.09,NNE,28,8.0,8.0,84,0.00,,,0.00,VWS V14.01,2013-06-10 07:47:00,
2013-06-09 21:52:00,71.7,66.9,30.09,NNE,31,9.0,14.0,85,0.00,,,0.00,VWS V14.01,2013-06-10 07:52:00,
2013-06-09 21:57:00,71.7,67.3,30.09,NNE,20,14.0,14.0,86,0.00,,,0.00,VWS V14.01,2013-06-10 07:57:00,
2013-06-09 22:02:00,71.7,67.6,30.09,North,360,8.0,8.0,87,0.00,,,0.00,VWS V14.01,2013-06-10 08:02:00,
2013-06-09 22:08:00,71.6,67.5,30.08,NNW,333,20.0,20.0,87,0.00,,,0.00,VWS V14.01,2013-06-10 08:08:00,
2013-06-09 22:13:00,71.6,67.5,30.09,NNE,26,4.0,4.0,87,0.00,,,0.00,VWS V14.01,2013-06-10 08:13:00,
2013-06-09 22:18:00,71.5,67.4,30.09,NNE,33,9.0,12.0,87,0.00,,,0.00,VWS V14.01,2013-06-10 08:18:00,
2013-06-09 22:23:00,71.2,67.1,30.09,NE,34,6.0,6.0,87,0.00,,,0.00,VWS V14.01,2013-06-10 08:23:00,
2013-06-09 22:28:00,71.2,66.8,30.09,NE,49,7.0,8.0,86,0.00,,,0.00,VWS V14.01,2013-06-10 08:28:00,
2013-06-09 22:33:00,71.1,66.4,30.09,NE,38,3.0,3.0,85,0.00,,,0.00,VWS V14.01,2013-06-10 08:33:00,
2013-06-09 22:38:00,71.2,66.5,30.09,NE,38,5.0,5.0,85,0.00,,,0.00,VWS V14.01,2013-06-10 08:38:00,
2013-06-09 22:43:00,71.3,66.6,30.09,NNE,27,3.0,4.0,85,0.00,,,0.00,VWS V14.01,2013-06-10 08:43:00,
2013-06-09 22:48:00,71.4,66.7,30.09,NE,49,6.0,11.0,85,0.00,,,0.00,VWS V14.01,2013-06-10 08:48:00,
2013-06-09 22:53:00,71.5,67.1,30.09,NE,41,6.0,10.0,86,0.00,,,0.00,VWS V14.01,2013-06-10 08:53:00,
2013-06-09 22:58:00,71.5,67.1,30.09,ENE,65,11.0,11.0,86,0.00,,,0.00,VWS V14.01,2013-06-10 08:58:00,
2013-06-09 23:03:00,71.2,66.8,30.09,ENE,76,7.0,8.0,86,0.00,,,0.00,VWS V14.01,2013-06-10 09:03:00,
2013-06-09 23:09:00,71.0,66.9,30.09,North,7,6.0,7.0,87,0.00,,,0.00,VWS V14.01,2013-06-10 09:09:00,
2013-06-09 23:14:00,70.9,66.5,30.08,NNE,15,4.0,6.0,86,0.00,,,0.00,VWS V14.01,2013-06-10 09:14:00,
2013-06-09 23:19:00,70.9,66.2,30.08,NNE,20,5.0,9.0,85,0.00,,,0.00,VWS V14.01,2013-06-10 09:19:00,
2013-06-09 23:24:00,71.0,65.9,30.08,North,355,7.0,7.0,84,0.00,,,0.00,VWS V14.01,2013-06-10 09:24:00,
2013-06-09 23:29:00,71.3,66.2,30.08,NE,48,6.0,6.0,84,0.00,,,0.00,VWS V14.01,2013-06-10 09:29:00,
2013-06-09 23:34:00,71.3,66.6,30.08,NE,44,7.0,7.0,85,0.00,,,0.00,VWS V14.01,2013-06-10 09:34:00,
2013-06-09 23:39:00,71.4,66.7,30.08,NE,55,7.0,7.0,85,0.00,,,0.00,VWS V14.01,2013-06-10 09:39:00,
2013-06-09 23:44:00,71.5,67.1,30.08,NE,55,6.0,6.0,86,0.00,,,0.00,VWS V14.01,2013-06-10 09:44:00,
2013-06-09 23:49:00,71.6,67.2,30.08,NE,37,2.0,2.0,86,0.00,,,0.00,VWS V14.01,2013-06-10 09:49:00,
2013-06-09 23:54:00,71.5,67.1,30.07,NNE,25,5.0,8.0,86,0.00,,,0.00,VWS V14.01,2013-06-10 09:54:00,